Time;durP1;ratioP1;P1;durP2;ratioP2;P2;SDS_P1;SDS_P2;PMS_P1;PMS_P2;Temp;Humidity;BMP_temperature;BMP_pressure;BME280_temperature;BME280_humidity;BME280_pressure;Samples;Min_cycle;Max_cycle;Signal;HPM_P1;HPM_P2
2023/09/04 00:02:02;;;;;;;3.95;2.08;;;17.90;99.90;;;;;;4873155;29;20489;-72
2023/09/04 00:04:28;;;;;;;4.03;2.00;;;17.80;99.90;;;;;;4874999;29;20037;-73
2023/09/04 00:06:53;;;;;;;4.00;2.00;;;17.80;99.90;;;;;;4875288;29;20028;-73
2023/09/04 00:09:19;;;;;;;4.20;1.92;;;17.80;99.90;;;;;;4877620;29;20398;-73
2023/09/04 00:11:45;;;;;;;5.45;1.70;;;17.70;99.90;;;;;;4886053;29;20516;-73
2023/09/04 00:14:11;;;;;;;3.30;1.98;;;17.70;99.90;;;;;;4877797;29;20489;-73
2023/09/04 00:16:37;;;;;;;3.38;1.85;;;17.70;99.90;;;;;;4877629;29;20494;-73
2023/09/04 00:19:03;;;;;;;3.42;1.55;;;17.70;99.90;;;;;;4877719;29;20685;-73
2023/09/04 00:21:29;;;;;;;3.83;2.25;;;17.80;99.90;;;;;;4875900;29;20047;-73
2023/09/04 00:23:54;;;;;;;12.15;2.10;;;17.70;99.90;;;;;;4884005;29;20052;-73
2023/09/04 00:26:20;;;;;;;7.80;2.35;;;17.80;99.90;;;;;;4877378;29;20039;-74
2023/09/04 00:28:46;;;;;;;3.45;1.73;;;17.80;99.90;;;;;;4885197;29;20112;-73
2023/09/04 00:31:11;;;;;;;4.22;1.98;;;17.80;99.90;;;;;;4877653;29;20148;-73
2023/09/04 00:33:38;;;;;;;3.75;1.80;;;17.80;99.90;;;;;;4878244;29;20029;-73
2023/09/04 00:36:04;;;;;;;5.88;2.05;;;17.80;99.90;;;;;;4879529;29;20033;-73
2023/09/04 00:38:29;;;;;;;6.68;2.30;;;17.70;99.90;;;;;;4876846;29;20092;-73
2023/09/04 00:40:55;;;;;;;6.22;2.05;;;17.70;99.90;;;;;;4885165;29;20393;-73
2023/09/04 00:43:21;;;;;;;3.72;1.67;;;17.70;99.90;;;;;;4871475;29;20075;-73
2023/09/04 00:45:47;;;;;;;2.65;1.38;;;17.60;99.90;;;;;;4875718;29;20056;-73
2023/09/04 00:48:13;;;;;;;4.25;2.25;;;17.70;99.90;;;;;;4876278;29;20088;-73
2023/09/04 00:50:42;;;;;;;7.13;2.08;;;17.70;99.90;;;;;;4876991;29;20040;-73
2023/09/04 00:53:10;;;;;;;3.10;1.73;;;17.70;99.90;;;;;;4876414;29;20381;-73
2023/09/04 00:55:37;;;;;;;3.38;2.17;;;17.70;99.90;;;;;;4875445;29;20088;-73
2023/09/04 00:58:04;;;;;;;3.53;2.10;;;17.70;99.90;;;;;;4876549;29;20485;-73
2023/09/04 01:00:30;;;;;;;3.25;1.85;;;17.80;99.90;;;;;;4875089;29;20047;-73
2023/09/04 01:02:59;;;;;;;3.42;1.70;;;17.70;99.90;;;;;;4877376;29;20124;-73
2023/09/04 01:05:28;;;;;;;4.18;1.80;;;17.60;99.90;;;;;;4851548;29;20052;-73
2023/09/04 01:07:54;;;;;;;3.10;1.63;;;17.60;99.90;;;;;;4839532;29;20041;-73
2023/09/04 01:10:21;;;;;;;3.55;1.90;;;17.50;99.90;;;;;;4833665;29;20049;-73
2023/09/04 01:13:03;;;;;;;2.72;1.67;;;17.50;99.90;;;;;;4856427;29;20044;-73
2023/09/04 01:15:30;;;;;;;4.18;1.92;;;17.50;99.90;;;;;;4855526;29;20093;-72
2023/09/04 01:17:56;;;;;;;5.22;2.40;;;17.50;99.90;;;;;;4856188;29;20045;-73
2023/09/04 01:20:29;;;;;;;3.78;1.92;;;17.40;99.90;;;;;;4855085;29;20042;-73
2023/09/04 01:22:56;;;;;;;3.85;2.13;;;17.40;99.90;;;;;;4856333;29;20116;-73
2023/09/04 01:25:44;;;;;;;6.97;1.90;;;17.30;99.90;;;;;;4855464;29;20207;-74
2023/09/04 01:28:40;;;;;;;2.95;1.58;;;17.20;99.90;;;;;;4858015;29;20036;-74
2023/09/04 01:31:46;;;;;;;4.55;2.05;;;17.10;99.90;;;;;;4856557;29;20132;-75
2023/09/04 01:34:19;;;;;;;3.58;1.77;;;16.90;99.90;;;;;;4841264;29;20053;-75
2023/09/04 01:36:46;;;;;;;8.10;2.40;;;16.90;99.90;;;;;;4853509;29;20762;-75
2023/09/04 01:39:12;;;;;;;4.10;2.08;;;16.90;99.90;;;;;;4878961;29;20037;-74
2023/09/04 01:41:41;;;;;;;3.47;1.80;;;16.90;99.90;;;;;;4875099;29;20067;-75
2023/09/04 01:44:07;;;;;;;3.30;1.67;;;16.80;99.90;;;;;;4879176;29;20040;-75
2023/09/04 01:46:34;;;;;;;5.32;2.25;;;16.70;99.90;;;;;;4880505;29;20065;-75
2023/09/04 01:49:00;;;;;;;4.47;2.13;;;16.50;99.90;;;;;;4881068;29;20528;-74
2023/09/04 01:51:26;;;;;;;2.88;2.05;;;16.20;99.90;;;;;;4879143;29;20037;-74
2023/09/04 01:53:52;;;;;;;3.88;2.22;;;16.10;99.90;;;;;;4879761;29;20043;-74
2023/09/04 01:56:17;;;;;;;4.85;2.13;;;16.10;99.90;;;;;;4873789;29;20039;-74
2023/09/04 01:58:43;;;;;;;3.20;2.10;;;16.00;99.90;;;;;;4880814;29;20036;-75
2023/09/04 02:01:09;;;;;;;4.47;2.25;;;15.90;99.90;;;;;;4878070;29;20120;-73
2023/09/04 02:03:35;;;;;;;4.47;1.95;;;15.90;99.90;;;;;;4879506;29;20039;-75
2023/09/04 02:06:00;;;;;;;3.65;2.30;;;15.80;99.90;;;;;;4880299;29;20100;-74
2023/09/04 02:08:26;;;;;;;3.35;1.77;;;15.90;99.90;;;;;;4880624;29;20036;-73
2023/09/04 02:10:52;;;;;;;5.97;1.88;;;16.00;99.90;;;;;;4879647;29;20462;-73
2023/09/04 02:13:17;;;;;;;3.83;2.03;;;15.90;99.90;;;;;;4879144;29;20052;-74
2023/09/04 02:15:43;;;;;;;3.53;1.98;;;15.80;99.90;;;;;;4880106;29;20032;-74
2023/09/04 02:18:09;;;;;;;5.80;2.75;;;15.80;99.90;;;;;;4879244;29;20538;-73
2023/09/04 02:20:35;;;;;;;7.47;2.42;;;15.70;99.90;;;;;;4878256;29;20045;-74
2023/09/04 02:23:00;;;;;;;3.83;2.08;;;15.80;99.90;;;;;;4880584;29;20450;-73
2023/09/04 02:25:26;;;;;;;5.35;2.63;;;15.80;99.90;;;;;;4878038;29;20077;-73
2023/09/04 02:27:52;;;;;;;8.57;2.40;;;15.80;99.90;;;;;;4879087;29;20068;-73
2023/09/04 02:30:18;;;;;;;3.72;2.55;;;15.70;99.90;;;;;;4877603;29;20060;-73
2023/09/04 02:32:45;;;;;;;5.43;2.47;;;15.70;99.90;;;;;;4878889;29;20569;-74
2023/09/04 02:35:11;;;;;;;5.20;2.65;;;15.80;99.90;;;;;;4872910;29;20093;-74
2023/09/04 02:37:36;;;;;;;5.05;2.72;;;15.80;99.90;;;;;;4879098;29;20033;-74
2023/09/04 02:40:05;;;;;;;6.72;2.67;;;15.80;99.90;;;;;;4862348;29;20169;-73
2023/09/04 02:42:31;;;;;;;7.10;3.05;;;15.90;99.90;;;;;;4880059;29;20087;-73
2023/09/04 02:44:57;;;;;;;4.00;2.30;;;15.90;99.90;;;;;;4878033;29;20124;-73
2023/09/04 02:47:23;;;;;;;5.55;2.70;;;15.80;99.90;;;;;;4878073;29;20041;-73
2023/09/04 02:49:49;;;;;;;4.57;2.60;;;15.90;99.90;;;;;;4861837;29;20514;-73
2023/09/04 02:52:16;;;;;;;3.30;1.85;;;15.90;99.90;;;;;;4862844;29;20033;-73
2023/09/04 02:54:43;;;;;;;4.57;2.60;;;15.90;99.90;;;;;;4879047;29;20039;-73
2023/09/04 02:57:09;;;;;;;8.45;3.13;;;15.90;99.90;;;;;;4861800;29;20033;-73
2023/09/04 02:59:36;;;;;;;4.22;2.40;;;15.90;99.90;;;;;;4877421;29;20040;-74
2023/09/04 03:02:02;;;;;;;6.45;3.17;;;16.00;99.90;;;;;;4878570;29;20032;-73
2023/09/04 03:04:28;;;;;;;5.80;2.90;;;16.10;99.90;;;;;;4859099;29;20056;-73
2023/09/04 03:06:54;;;;;;;5.63;3.10;;;16.10;99.90;;;;;;4859964;29;20041;-73
2023/09/04 03:09:20;;;;;;;5.00;2.80;;;16.10;99.90;;;;;;4860557;29;20048;-73
2023/09/04 03:11:46;;;;;;;5.53;3.03;;;16.10;99.90;;;;;;4879426;29;20502;-73
2023/09/04 03:14:11;;;;;;;4.78;3.00;;;16.00;99.90;;;;;;4879008;29;20052;-73
2023/09/04 03:16:37;;;;;;;4.60;2.70;;;15.90;99.90;;;;;;4879520;29;20482;-73
2023/09/04 03:19:03;;;;;;;4.88;2.50;;;15.80;99.90;;;;;;4862812;29;20029;-74
2023/09/04 03:21:31;;;;;;;5.55;3.17;;;15.70;99.90;;;;;;4872990;29;20529;-74
2023/09/04 03:23:57;;;;;;;4.78;2.70;;;15.70;99.90;;;;;;4878964;29;20371;-74
2023/09/04 03:26:22;;;;;;;6.13;2.40;;;15.60;99.90;;;;;;4878457;29;20096;-74
2023/09/04 03:28:48;;;;;;;7.47;2.28;;;15.70;99.90;;;;;;4879146;29;20033;-75
2023/09/04 03:31:14;;;;;;;4.60;2.58;;;15.60;99.90;;;;;;4876170;29;20144;-74
2023/09/04 03:33:41;;;;;;;8.77;3.35;;;15.60;99.90;;;;;;4877766;29;20044;-74
2023/09/04 03:36:09;;;;;;;6.13;2.85;;;15.40;99.90;;;;;;4876680;29;20504;-74
2023/09/04 03:38:35;;;;;;;5.07;2.70;;;15.40;99.90;;;;;;4877657;29;20060;-74
2023/09/04 03:41:01;;;;;;;3.92;2.10;;;15.30;99.90;;;;;;4877490;29;20082;-73
2023/09/04 03:43:28;;;;;;;6.00;2.90;;;15.20;99.90;;;;;;4881379;29;20032;-75
2023/09/04 03:45:54;;;;;;;6.38;3.13;;;15.30;99.90;;;;;;4878037;29;20048;-74
2023/09/04 03:48:20;;;;;;;5.88;2.55;;;15.30;99.90;;;;;;4878565;29;20132;-74
2023/09/04 03:50:46;;;;;;;3.92;2.33;;;15.20;99.90;;;;;;4876448;29;20029;-74
2023/09/04 03:53:12;;;;;;;4.82;3.15;;;15.30;99.90;;;;;;4878498;29;20316;-75
2023/09/04 03:55:37;;;;;;;6.15;2.33;;;15.30;99.90;;;;;;4878149;29;20040;-74
2023/09/04 03:58:03;;;;;;;7.00;3.95;;;15.40;99.90;;;;;;4877059;29;20170;-74
2023/09/04 04:00:32;;;;;;;5.80;2.90;;;15.40;99.90;;;;;;4876436;29;20037;-74
2023/09/04 04:02:57;;;;;;;6.47;2.38;;;15.30;99.90;;;;;;4862954;29;20033;-73
2023/09/04 04:05:24;;;;;;;3.75;2.47;;;15.30;99.90;;;;;;4862569;29;20045;-74
2023/09/04 04:07:50;;;;;;;4.28;2.63;;;15.40;99.90;;;;;;4859161;29;20029;-74
2023/09/04 04:10:16;;;;;;;4.93;2.63;;;15.40;99.90;;;;;;4847885;29;20048;-74
2023/09/04 04:12:42;;;;;;;5.93;2.95;;;15.50;99.90;;;;;;4858983;29;20040;-74
2023/09/04 04:15:08;;;;;;;4.72;2.35;;;15.50;99.90;;;;;;4858139;29;20041;-75
2023/09/04 04:17:36;;;;;;;5.57;2.78;;;15.40;99.90;;;;;;4859205;29;20467;-74
2023/09/04 04:20:12;;;;;;;6.13;2.63;;;15.40;99.90;;;;;;4859799;29;20037;-74
2023/09/04 04:22:40;;;;;;;6.25;3.10;;;15.40;99.90;;;;;;4866216;29;20127;-74
2023/09/04 04:25:06;;;;;;;5.80;2.60;;;15.20;99.90;;;;;;4859625;29;20102;-74
2023/09/04 04:27:32;;;;;;;11.40;3.28;;;15.20;99.90;;;;;;4876289;29;20100;-74
2023/09/04 04:29:58;;;;;;;11.52;3.08;;;15.20;99.90;;;;;;4876582;29;20033;-74
2023/09/04 04:32:24;;;;;;;5.13;2.97;;;15.30;99.90;;;;;;4878074;29;20486;-74
2023/09/04 04:34:51;;;;;;;7.30;3.25;;;15.30;99.90;;;;;;4861483;29;20376;-74
2023/09/04 04:37:17;;;;;;;6.22;3.53;;;15.20;99.90;;;;;;4880792;29;20151;-74
2023/09/04 04:39:43;;;;;;;7.40;3.30;;;15.10;99.90;;;;;;4880476;29;20048;-75
2023/09/04 04:42:09;;;;;;;6.47;3.25;;;15.20;99.90;;;;;;4877799;29;20418;-75
2023/09/04 04:44:35;;;;;;;5.78;2.67;;;15.20;99.90;;;;;;4880256;29;20088;-74
2023/09/04 04:47:00;;;;;;;8.50;3.17;;;15.20;99.90;;;;;;4885347;29;20033;-75
2023/09/04 04:49:30;;;;;;;4.43;2.50;;;15.20;99.90;;;;;;4892592;29;20039;-74
2023/09/04 04:51:56;;;;;;;4.80;3.15;;;15.20;99.90;;;;;;4826684;29;20458;-74
2023/09/04 04:54:22;;;;;;;5.57;2.50;;;15.20;99.90;;;;;;4811042;29;20037;-74
2023/09/04 04:56:49;;;;;;;5.18;2.70;;;15.30;99.90;;;;;;4834859;29;20050;-75
2023/09/04 04:59:15;;;;;;;4.75;2.55;;;15.30;99.90;;;;;;4832885;29;20033;-76
2023/09/04 05:01:42;;;;;;;5.57;2.70;;;15.30;99.90;;;;;;4820020;29;20050;-75
2023/09/04 05:04:08;;;;;;;7.72;2.95;;;15.30;99.90;;;;;;4827333;29;20042;-76
2023/09/04 05:06:33;;;;;;;6.50;2.72;;;15.30;99.90;;;;;;4817406;29;20057;-76
2023/09/04 05:08:59;;;;;;;4.82;2.55;;;15.30;99.90;;;;;;4827560;29;20063;-76
2023/09/04 05:11:25;;;;;;;4.82;2.25;;;15.30;99.90;;;;;;4792787;29;20052;-76
2023/09/04 05:13:51;;;;;;;5.95;2.60;;;15.20;99.90;;;;;;4838201;29;20414;-75
2023/09/04 05:16:16;;;;;;;5.25;3.00;;;15.20;99.90;;;;;;4828103;29;20543;-75
2023/09/04 05:18:42;;;;;;;7.20;3.10;;;15.20;99.90;;;;;;4805362;29;20114;-75
2023/09/04 05:21:08;;;;;;;4.63;2.60;;;15.20;99.90;;;;;;4820057;29;20580;-75
2023/09/04 05:23:34;;;;;;;4.43;2.50;;;15.20;99.90;;;;;;4866536;29;20131;-75
2023/09/04 05:26:00;;;;;;;10.95;3.03;;;15.20;99.90;;;;;;4873392;29;20405;-75
2023/09/04 05:28:26;;;;;;;5.53;2.70;;;15.30;99.90;;;;;;4876931;29;20036;-76
2023/09/04 05:30:52;;;;;;;5.78;2.92;;;15.30;99.90;;;;;;4871581;29;20037;-72
2023/09/04 05:33:17;;;;;;;7.57;2.95;;;15.30;99.90;;;;;;4859350;29;20033;-74
2023/09/04 05:35:43;;;;;;;8.45;2.50;;;15.40;99.90;;;;;;4861592;29;20020;-74
2023/09/04 05:38:09;;;;;;;5.32;2.35;;;15.40;99.90;;;;;;4881501;29;20050;-74
2023/09/04 05:40:35;;;;;;;4.43;2.25;;;15.50;99.90;;;;;;4856480;29;20155;-74
2023/09/04 05:43:01;;;;;;;5.72;2.75;;;15.60;99.90;;;;;;4876011;29;20102;-73
2023/09/04 05:45:27;;;;;;;5.20;2.45;;;15.60;99.90;;;;;;4877091;29;20029;-72
2023/09/04 05:47:53;;;;;;;11.55;3.20;;;15.80;99.90;;;;;;4876416;29;20037;-75
2023/09/04 05:50:18;;;;;;;5.65;2.50;;;15.80;99.90;;;;;;4860018;29;20033;-75
2023/09/04 05:52:44;;;;;;;4.97;2.20;;;15.90;99.90;;;;;;4859994;29;20089;-76
2023/09/04 05:55:10;;;;;;;6.07;2.75;;;16.00;99.90;;;;;;4864759;29;20034;-77
2023/09/04 05:57:36;;;;;;;9.50;3.10;;;16.00;99.90;;;;;;4874702;29;20053;-76
2023/09/04 06:00:06;;;;;;;8.32;3.05;;;16.10;99.90;;;;;;4876906;29;20033;-76
2023/09/04 06:02:32;;;;;;;4.03;2.63;;;16.20;99.90;;;;;;4839272;29;20861;-72
2023/09/04 06:04:58;;;;;;;4.10;2.30;;;16.40;99.90;;;;;;4872874;29;20124;-73
2023/09/04 06:07:23;;;;;;;5.30;2.67;;;16.40;99.90;;;;;;4876695;29;20032;-72
2023/09/04 06:09:49;;;;;;;4.05;2.00;;;16.50;99.90;;;;;;4877033;29;20048;-73
2023/09/04 06:12:15;;;;;;;6.40;3.05;;;16.60;99.90;;;;;;4874328;29;20048;-73
2023/09/04 06:14:41;;;;;;;4.75;2.85;;;16.70;99.90;;;;;;4877198;29;20104;-72
2023/09/04 06:17:07;;;;;;;5.32;2.78;;;16.90;99.90;;;;;;4876318;29;20040;-77
2023/09/04 06:19:32;;;;;;;6.63;2.05;;;17.00;99.90;;;;;;4877789;29;20390;-77
2023/09/04 06:21:58;;;;;;;5.78;2.60;;;17.20;99.90;;;;;;4864061;29;20113;-76
2023/09/04 06:24:24;;;;;;;6.75;3.10;;;17.40;99.90;;;;;;4881569;29;20029;-77
2023/09/04 06:26:51;;;;;;;11.23;2.55;;;17.50;99.90;;;;;;4879168;29;20709;-76
2023/09/04 06:29:18;;;;;;;3.85;1.73;;;17.60;99.90;;;;;;4867265;29;20280;-78
2023/09/04 06:31:44;;;;;;;3.63;1.95;;;17.70;99.90;;;;;;4880227;29;20120;-77
2023/09/04 06:34:11;;;;;;;3.70;1.98;;;17.70;99.90;;;;;;4880921;29;20029;-77
2023/09/04 06:36:36;;;;;;;4.00;2.13;;;17.70;99.90;;;;;;4864477;29;20136;-77
2023/09/04 06:39:06;;;;;;;4.38;2.05;;;17.70;99.90;;;;;;4866937;29;20072;-77
2023/09/04 06:41:32;;;;;;;3.92;1.90;;;17.80;99.90;;;;;;4863558;29;20057;-76
2023/09/04 06:43:59;;;;;;;2.55;1.40;;;17.80;99.90;;;;;;4880300;29;20036;-78
2023/09/04 06:46:25;;;;;;;5.70;1.75;;;17.80;99.90;;;;;;4859406;29;20028;-66
2023/09/04 06:48:51;;;;;;;5.32;1.60;;;17.90;99.90;;;;;;4875536;29;20044;-66
2023/09/04 06:51:16;;;;;;;4.88;1.70;;;18.00;99.90;;;;;;4846394;29;20027;-65
2023/09/04 06:53:43;;;;;;;5.35;1.85;;;18.10;99.90;;;;;;4879193;29;20116;-65
2023/09/04 06:56:09;;;;;;;2.30;1.52;;;18.20;99.90;;;;;;4875259;29;20029;-66
2023/09/04 06:58:35;;;;;;;4.90;2.13;;;18.30;99.90;;;;;;4877980;29;20482;-66
2023/09/04 07:01:04;;;;;;;2.78;1.60;;;18.40;99.90;;;;;;4878037;29;20088;-65
2023/09/04 07:03:31;;;;;;;5.40;1.77;;;18.50;99.90;;;;;;4878861;29;20064;-66
2023/09/04 07:05:57;;;;;;;3.13;1.58;;;18.60;99.90;;;;;;4861793;29;20107;-65
2023/09/04 07:08:24;;;;;;;2.70;1.55;;;18.70;99.90;;;;;;4862378;29;20148;-65
2023/09/04 07:10:51;;;;;;;3.80;1.70;;;18.80;99.90;;;;;;4861447;29;20033;-65
2023/09/04 07:13:18;;;;;;;3.22;1.73;;;19.00;99.90;;;;;;4862431;29;20029;-65
2023/09/04 07:15:44;;;;;;;4.35;1.60;;;19.10;99.90;;;;;;4861858;29;20033;-66
2023/09/04 07:18:10;;;;;;;2.08;1.35;;;19.20;99.90;;;;;;4879030;29;20032;-65
2023/09/04 07:20:36;;;;;;;4.32;1.80;;;19.10;99.90;;;;;;4861360;29;20470;-65
2023/09/04 07:23:03;;;;;;;4.63;1.60;;;19.20;99.90;;;;;;4878778;29;20045;-65
2023/09/04 07:25:30;;;;;;;3.78;1.70;;;19.30;99.90;;;;;;4878499;29;20053;-65
2023/09/04 07:27:56;;;;;;;2.33;1.58;;;19.40;99.90;;;;;;4875726;29;20025;-65
2023/09/04 07:30:22;;;;;;;6.68;1.90;;;19.50;99.90;;;;;;4860310;29;20052;-65
2023/09/04 07:32:48;;;;;;;3.83;1.77;;;19.60;99.90;;;;;;4877863;29;20070;-65
2023/09/04 07:35:14;;;;;;;2.65;1.42;;;19.70;99.90;;;;;;4878639;29;20029;-65
2023/09/04 07:37:40;;;;;;;2.35;1.33;;;19.80;99.90;;;;;;4878992;29;20497;-65
2023/09/04 07:40:06;;;;;;;3.40;1.70;;;20.00;99.90;;;;;;4878443;29;20390;-65
2023/09/04 07:42:32;;;;;;;3.35;1.67;;;20.00;99.90;;;;;;4877742;29;20128;-65
2023/09/04 07:44:58;;;;;;;2.65;1.50;;;20.20;99.90;;;;;;4878658;29;20037;-64
2023/09/04 07:47:24;;;;;;;2.35;1.42;;;20.20;99.90;;;;;;4860465;29;20041;-65
2023/09/04 07:49:51;;;;;;;3.88;1.45;;;20.30;99.90;;;;;;4861250;29;20033;-65
2023/09/04 07:52:16;;;;;;;8.68;1.73;;;20.40;99.90;;;;;;4877125;29;20048;-65
2023/09/04 07:54:44;;;;;;;3.13;1.42;;;20.40;99.90;;;;;;4878550;29;20033;-64
2023/09/04 07:57:10;;;;;;;3.97;1.80;;;20.50;99.90;;;;;;4876126;29;20033;-65
2023/09/04 07:59:37;;;;;;;4.53;1.65;;;20.60;99.90;;;;;;4874848;29;20048;-65
2023/09/04 08:02:03;;;;;;;2.33;1.33;;;20.70;99.90;;;;;;4873748;29;20076;-65
2023/09/04 08:04:29;;;;;;;1.98;1.20;;;20.80;99.90;;;;;;4875643;29;20044;-65
2023/09/04 08:06:59;;;;;;;6.25;1.48;;;20.80;99.90;;;;;;4854725;29;20490;-65
2023/09/04 08:09:24;;;;;;;2.60;1.63;;;21.00;99.90;;;;;;4874440;29;20067;-65
2023/09/04 08:11:50;;;;;;;2.05;1.20;;;21.10;99.90;;;;;;4877166;29;20064;-66
2023/09/04 08:14:16;;;;;;;5.72;2.05;;;21.20;99.90;;;;;;4878226;29;20029;-66
2023/09/04 08:16:42;;;;;;;5.18;1.17;;;21.30;99.90;;;;;;4845887;29;20090;-73
2023/09/04 08:19:08;;;;;;;2.33;1.38;;;21.40;99.90;;;;;;4878216;29;20108;-72
2023/09/04 08:21:33;;;;;;;1.98;1.23;;;21.40;99.90;;;;;;4841572;29;20048;-74
2023/09/04 08:23:59;;;;;;;2.78;1.30;;;21.50;99.90;;;;;;4861417;29;20116;-73
2023/09/04 08:26:25;;;;;;;7.68;1.45;;;21.60;99.90;;;;;;4873760;29;20037;-71
2023/09/04 08:28:51;;;;;;;2.28;1.48;;;21.70;99.90;;;;;;4878187;29;20048;-72
2023/09/04 08:31:17;;;;;;;2.83;1.52;;;21.80;99.90;;;;;;4874603;29;20144;-73
2023/09/04 08:33:42;;;;;;;2.50;1.52;;;21.90;99.90;;;;;;4878217;29;20475;-71
2023/09/04 08:36:08;;;;;;;5.95;1.70;;;22.00;99.90;;;;;;4877131;29;20063;-73
2023/09/04 08:38:34;;;;;;;3.03;1.55;;;22.10;99.90;;;;;;4878147;29;20044;-71
2023/09/04 08:41:08;;;;;;;3.58;2.08;;;22.30;99.90;;;;;;4876561;29;20071;-71
2023/09/04 08:43:37;;;;;;;3.03;1.63;;;22.30;99.90;;;;;;4876945;29;20058;-71
2023/09/04 08:46:07;;;;;;;2.03;1.20;;;22.50;99.90;;;;;;4876602;29;20036;-71
2023/09/04 08:48:39;;;;;;;1.95;1.23;;;22.60;99.90;;;;;;4861601;29;20041;-72
2023/09/04 08:51:06;;;;;;;3.63;1.63;;;22.80;99.90;;;;;;4860583;29;20056;-71
2023/09/04 08:53:32;;;;;;;4.93;1.55;;;22.90;99.90;;;;;;4878007;29;20111;-71
2023/09/04 08:55:58;;;;;;;5.90;1.35;;;23.00;99.90;;;;;;4860579;29;20383;-71
2023/09/04 08:58:24;;;;;;;2.90;1.48;;;22.90;99.90;;;;;;4861026;29;20041;-77
2023/09/04 09:00:50;;;;;;;1.92;1.30;;;23.00;99.90;;;;;;4875232;29;20034;-72
2023/09/04 09:03:17;;;;;;;3.03;1.48;;;23.10;99.90;;;;;;4861224;29;20029;-72
2023/09/04 09:05:47;;;;;;;3.50;1.75;;;23.10;99.90;;;;;;4858540;29;20104;-72
2023/09/04 09:08:14;;;;;;;2.67;1.35;;;23.20;99.90;;;;;;4867233;29;20433;-70
2023/09/04 09:10:40;;;;;;;2.33;1.30;;;23.20;99.90;;;;;;4844937;29;20033;-71
2023/09/04 09:13:08;;;;;;;2.33;1.30;;;23.20;99.90;;;;;;4860813;29;20089;-71
2023/09/04 09:15:34;;;;;;;2.50;1.30;;;23.30;99.90;;;;;;4876619;29;20028;-73
2023/09/04 09:18:00;;;;;;;4.05;1.55;;;23.40;99.90;;;;;;4860730;29;20386;-72
2023/09/04 09:20:33;;;;;;;5.03;1.23;;;23.60;99.90;;;;;;4876856;29;20033;-59
2023/09/04 09:23:00;;;;;;;8.50;1.60;;;23.70;99.90;;;;;;4877137;29;20036;-61
2023/09/04 09:25:29;;;;;;;2.40;1.50;;;23.90;99.90;;;;;;4877035;29;20035;-58
2023/09/04 09:28:05;;;;;;;3.45;1.50;;;24.10;99.90;;;;;;4877083;29;20036;-58
2023/09/04 09:30:37;;;;;;;3.85;1.40;;;24.20;99.90;;;;;;4873946;29;20121;-59
2023/09/04 09:33:08;;;;;;;4.18;1.38;;;24.20;99.90;;;;;;4876408;29;20037;-58
2023/09/04 09:35:34;;;;;;;2.33;1.42;;;24.20;99.90;;;;;;4882048;29;20478;-59
2023/09/04 09:38:03;;;;;;;3.03;1.48;;;24.40;99.90;;;;;;4876756;29;20040;-59
2023/09/04 09:40:29;;;;;;;2.63;1.20;;;24.50;98.70;;;;;;4873190;29;20409;-59
2023/09/04 09:42:55;;;;;;;3.40;0.93;;;24.60;98.40;;;;;;4863672;29;20105;-59
2023/09/04 09:45:21;;;;;;;1.63;0.98;;;24.80;97.60;;;;;;4876469;29;20033;-59
2023/09/04 09:47:50;;;;;;;3.88;1.60;;;24.80;95.00;;;;;;4876313;29;20066;-59
2023/09/04 09:50:16;;;;;;;2.13;1.10;;;24.90;95.70;;;;;;4876605;29;20068;-59
2023/09/04 09:52:58;;;;;;;2.05;0.80;;;25.00;96.30;;;;;;4853242;29;20112;-60
2023/09/04 09:55:26;;;;;;;2.22;1.15;;;25.20;96.20;;;;;;4860718;29;20052;-60
2023/09/04 09:57:58;;;;;;;3.05;1.27;;;25.50;93.00;;;;;;4871213;29;20032;-60
2023/09/04 10:00:28;;;;;;;2.42;1.10;;;25.60;91.40;;;;;;4847909;29;20512;-60
2023/09/04 10:02:54;;;;;;;1.95;0.85;;;25.70;92.20;;;;;;4880080;29;20489;-58
2023/09/04 10:05:24;;;;;;;5.25;1.50;;;25.80;90.90;;;;;;4880288;29;20462;-60
2023/09/04 10:07:58;;;;;;;2.00;1.02;;;25.70;90.10;;;;;;4879884;29;20097;-60
2023/09/04 10:10:24;;;;;;;2.25;0.93;;;25.90;88.50;;;;;;4880009;29;20040;-60
2023/09/04 10:13:08;;;;;;;2.38;1.10;;;26.00;90.10;;;;;;4878417;29;20047;-60
2023/09/04 10:15:36;;;;;;;1.17;0.77;;;26.10;84.90;;;;;;4857804;29;20033;-60
2023/09/04 10:18:14;;;;;;;3.17;1.40;;;26.10;83.80;;;;;;4879916;29;20035;-59
2023/09/04 10:20:41;;;;;;;2.80;1.27;;;26.20;88.00;;;;;;4877915;29;20037;-59
2023/09/04 10:23:10;;;;;;;2.40;1.05;;;26.10;85.40;;;;;;4863361;29;20035;-60
2023/09/04 10:25:42;;;;;;;2.20;0.90;;;26.40;82.60;;;;;;4879317;29;20494;-59
2023/09/04 10:28:21;;;;;;;2.13;0.90;;;26.50;81.70;;;;;;4879841;29;20045;-59
2023/09/04 10:30:55;;;;;;;2.30;1.10;;;26.40;80.30;;;;;;4877734;29;20061;-60
2023/09/04 10:33:21;;;;;;;1.48;0.80;;;26.80;80.50;;;;;;4879847;29;20033;-59
2023/09/04 10:35:47;;;;;;;1.33;0.77;;;26.90;76.70;;;;;;4879009;29;20033;-59
2023/09/04 10:38:13;;;;;;;3.75;1.10;;;26.90;78.10;;;;;;4879857;29;20123;-60
2023/09/04 10:40:40;;;;;;;2.38;0.80;;;26.90;78.70;;;;;;4862125;29;20062;-59
2023/09/04 10:43:09;;;;;;;1.60;0.80;;;26.90;75.80;;;;;;4863355;29;20029;-59
2023/09/04 10:45:35;;;;;;;4.47;1.00;;;27.00;74.70;;;;;;4862965;29;20033;-58
2023/09/04 10:48:01;;;;;;;1.38;0.60;;;27.30;74.40;;;;;;4879919;29;20462;-60
2023/09/04 10:50:37;;;;;;;0.85;0.40;;;27.40;74.00;;;;;;4862450;29;20572;-60
2023/09/04 10:53:05;;;;;;;2.13;0.80;;;27.30;63.50;;;;;;4876068;29;20025;-61
2023/09/04 10:55:37;;;;;;;1.08;0.60;;;27.30;64.50;;;;;;4859531;29;20512;-59
2023/09/04 10:58:07;;;;;;;2.00;0.70;;;27.30;63.70;;;;;;4860702;29;20040;-60
2023/09/04 11:00:37;;;;;;;;;;;27.20;60.60;;;;;;4872646;29;20040;-61
2023/09/04 11:03:21;;;;;;;1.00;0.50;;;27.30;62.50;;;;;;4878181;29;20382;-61
2023/09/04 11:06:08;;;;;;;1.95;0.85;;;27.60;63.40;;;;;;4848277;29;20068;-60
2023/09/04 11:08:36;;;;;;;1.83;0.98;;;27.60;62.90;;;;;;4866350;29;20656;-59
2023/09/04 11:11:03;;;;;;;2.15;0.60;;;27.90;64.40;;;;;;4858094;29;20041;-69
2023/09/04 11:13:32;;;;;;;1.17;0.57;;;27.90;59.20;;;;;;4865424;29;20039;-69
2023/09/04 11:15:58;;;;;;;1.83;0.32;;;27.80;57.40;;;;;;4878888;29;20037;-68
2023/09/04 11:18:33;;;;;;;2.28;0.80;;;27.80;58.60;;;;;;4862879;29;20017;-67
2023/09/04 11:21:01;;;;;;;1.35;0.80;;;27.70;58.20;;;;;;4871351;29;20081;-68
2023/09/04 11:23:28;;;;;;;1.88;0.63;;;27.90;58.50;;;;;;4866475;29;20105;-68
2023/09/04 11:25:55;;;;;;;2.30;0.82;;;28.10;57.40;;;;;;4866477;29;20395;-72
2023/09/04 11:28:26;;;;;;;1.27;0.70;;;28.30;58.20;;;;;;4851965;29;20028;-72
2023/09/04 11:30:57;;;;;;;1.90;0.70;;;28.40;58.20;;;;;;4859600;29;20075;-69
2023/09/04 11:33:29;;;;;;;2.10;0.75;;;28.60;56.60;;;;;;4849651;29;20327;-69
2023/09/04 11:36:05;;;;;;;2.03;0.60;;;28.30;57.80;;;;;;4849789;29;20392;-69
2023/09/04 11:38:33;;;;;;;1.85;0.88;;;28.60;59.00;;;;;;4843830;29;20164;-69
2023/09/04 11:40:59;;;;;;;1.02;0.47;;;28.40;55.90;;;;;;4858014;29;20152;-68
2023/09/04 11:43:28;;;;;;;1.38;0.70;;;28.60;56.40;;;;;;4858353;29;20067;-69
2023/09/04 11:45:57;;;;;;;1.58;0.85;;;28.80;56.00;;;;;;4866608;29;20490;-69
2023/09/04 11:48:27;;;;;;;1.53;0.70;;;28.70;55.70;;;;;;4871612;29;20100;-69
2023/09/04 11:50:54;;;;;;;0.82;0.60;;;28.70;56.00;;;;;;4877930;29;20055;-69
2023/09/04 11:53:22;;;;;;;1.15;0.68;;;28.90;55.90;;;;;;4878477;29;20041;-69
2023/09/04 11:55:50;;;;;;;0.95;0.55;;;28.70;55.30;;;;;;4871486;29;20034;-69
2023/09/04 11:58:16;;;;;;;2.83;1.02;;;29.20;57.70;;;;;;4857003;29;20028;-69
2023/09/04 12:00:42;;;;;;;0.80;0.55;;;29.10;56.60;;;;;;4852760;29;20509;-69
2023/09/04 12:03:08;;;;;;;1.00;0.50;;;29.40;54.80;;;;;;4871534;29;20044;-69
2023/09/04 12:05:35;;;;;;;2.22;0.70;;;29.40;54.80;;;;;;4872153;29;20032;-69
2023/09/04 12:08:03;;;;;;;1.38;0.57;;;29.40;54.50;;;;;;4876791;29;20060;-69
2023/09/04 12:10:29;;;;;;;3.22;0.80;;;29.70;55.00;;;;;;4859964;29;20037;-69
2023/09/04 12:12:55;;;;;;;1.63;0.70;;;29.50;53.90;;;;;;4878244;29;20084;-68
2023/09/04 12:15:35;;;;;;;0.77;0.60;;;29.50;54.40;;;;;;4881429;29;20075;-69
2023/09/04 12:18:03;;;;;;;1.50;0.52;;;30.20;54.80;;;;;;4880327;29;20052;-69
2023/09/04 12:20:46;;;;;;;2.92;0.80;;;30.00;51.50;;;;;;4871904;29;20037;-69
2023/09/04 12:23:12;;;;;;;2.72;1.05;;;30.00;52.70;;;;;;4881120;29;20498;-69
2023/09/04 12:25:44;;;;;;;1.02;0.55;;;30.20;52.80;;;;;;4881821;29;20036;-71
2023/09/04 12:28:12;;;;;;;1.85;0.60;;;29.80;52.70;;;;;;4849586;29;20041;-69
2023/09/04 12:30:44;;;;;;;2.45;1.10;;;29.90;52.60;;;;;;4848487;29;20037;-69
2023/09/04 12:33:12;;;;;;;2.28;0.75;;;30.20;53.80;;;;;;4880483;29;20136;-70
2023/09/04 12:35:40;;;;;;;2.60;1.05;;;30.60;53.20;;;;;;4861563;29;20468;-72
2023/09/04 12:38:06;;;;;;;1.98;0.95;;;31.30;53.70;;;;;;4864322;29;20061;-71
2023/09/04 12:40:32;;;;;;;1.45;0.82;;;31.50;55.60;;;;;;4880079;29;20036;-71
2023/09/04 12:42:59;;;;;;;1.38;0.70;;;31.10;53.80;;;;;;4863652;29;20029;-71
2023/09/04 12:45:24;;;;;;;1.77;0.90;;;31.30;53.10;;;;;;4878617;29;20482;-71
2023/09/04 12:47:50;;;;;;;1.00;0.60;;;31.30;51.70;;;;;;4877298;29;20051;-70
2023/09/04 12:50:16;;;;;;;2.22;0.90;;;31.70;51.70;;;;;;4874754;29;20041;-74